createdAt,value
2018-06-02T00:00:00.589Z,9.70
2018-06-02T00:02:28.037Z,11.23
2018-06-02T00:04:55.522Z,10.03
2018-06-02T00:07:23.707Z,8.67
2018-06-02T00:09:51.163Z,8.37
2018-06-02T00:12:18.613Z,10.93
2018-06-02T00:14:46.050Z,11.07
2018-06-02T00:17:14.282Z,11.67
2018-06-02T00:19:41.735Z,10.73
2018-06-02T00:22:09.954Z,9.53
2018-06-02T00:24:37.385Z,11.57
2018-06-02T00:27:04.854Z,12.30
2018-06-02T00:29:32.281Z,9.00
2018-06-02T00:31:59.747Z,11.37
2018-06-02T00:34:27.191Z,12.50
2018-06-02T00:36:54.646Z,17.40
2018-06-02T00:39:22.096Z,14.07
2018-06-02T00:41:49.544Z,16.10
2018-06-02T00:44:16.973Z,13.80
2018-06-02T00:46:44.418Z,15.07
2018-06-02T00:49:11.867Z,16.93
2018-06-02T00:51:40.107Z,11.17
2018-06-02T00:54:07.547Z,11.90
2018-06-02T00:56:35.023Z,14.40
2018-06-02T00:59:03.222Z,15.33
2018-06-02T01:01:30.678Z,10.37
2018-06-02T01:03:58.117Z,10.60
2018-06-02T01:06:25.562Z,8.13
2018-06-02T01:08:53.012Z,10.13
2018-06-02T01:11:20.465Z,9.23
2018-06-02T01:13:47.906Z,8.57
2018-06-02T01:16:15.355Z,9.67
2018-06-02T01:18:43.567Z,9.77
2018-06-02T01:21:11.764Z,8.10
2018-06-02T01:23:39.201Z,7.93
2018-06-02T01:26:06.677Z,9.53
2018-06-02T01:28:34.136Z,8.30
2018-06-02T01:31:01.603Z,14.83
2018-06-02T01:33:29.071Z,11.43
2018-06-02T01:35:57.308Z,12.80
2018-06-02T01:38:24.771Z,12.70
2018-06-02T01:40:52.226Z,19.73
2018-06-02T01:43:19.683Z,14.33
2018-06-02T01:45:47.137Z,17.53
2018-06-02T01:48:14.623Z,17.23
2018-06-02T01:50:42.054Z,17.90
2018-06-02T01:53:09.513Z,21.13
2018-06-02T01:55:36.970Z,21.53
2018-06-02T01:58:04.454Z,23.90
2018-06-02T02:00:31.901Z,23.57
2018-06-02T02:02:59.350Z,27.83
2018-06-02T02:05:26.806Z,29.67
2018-06-02T02:07:54.266Z,25.57
2018-06-02T02:10:21.738Z,27.63
2018-06-02T02:12:49.178Z,26.80
2018-06-02T02:15:17.392Z,29.37
2018-06-02T02:17:44.841Z,28.80
2018-06-02T02:20:12.296Z,30.60
2018-06-02T02:22:39.757Z,30.53
2018-06-02T02:25:07.198Z,32.87
2018-06-02T02:27:34.654Z,29.97
2018-06-02T02:30:02.098Z,31.40
2018-06-02T02:32:29.554Z,30.27
2018-06-02T02:34:57.009Z,27.87
2018-06-02T02:37:24.477Z,30.03
2018-06-02T02:39:51.935Z,30.70
2018-06-02T02:42:19.383Z,29.60
2018-06-02T02:44:46.842Z,31.57
2018-06-02T02:47:14.291Z,25.83
2018-06-02T02:49:41.753Z,28.10
2018-06-02T02:52:09.195Z,27.10
2018-06-02T02:54:36.655Z,28.63
2018-06-02T02:57:04.098Z,29.73
2018-06-02T02:59:31.562Z,28.27
2018-06-02T03:01:59.014Z,27.63
2018-06-02T03:04:26.475Z,26.83
2018-06-02T03:06:53.925Z,30.50
2018-06-02T03:09:21.382Z,27.40
2018-06-02T03:11:48.846Z,31.53
2018-06-02T03:14:16.302Z,23.63
2018-06-02T03:16:43.748Z,26.43
2018-06-02T03:19:11.208Z,25.30
2018-06-02T03:21:38.654Z,23.37
2018-06-02T03:24:06.107Z,22.90
2018-06-02T03:26:33.541Z,27.30
2018-06-02T03:29:01.783Z,25.87
2018-06-02T03:31:29.238Z,26.53
2018-06-02T03:33:56.707Z,23.10
2018-06-02T03:36:24.154Z,22.37
2018-06-02T03:38:51.628Z,24.50
2018-06-02T03:41:19.067Z,22.70
2018-06-02T03:43:46.522Z,31.17
2018-06-02T03:46:13.979Z,27.20
2018-06-02T03:48:41.434Z,33.57
2018-06-02T03:51:08.890Z,24.63
2018-06-02T03:53:36.346Z,18.63
2018-06-02T03:56:03.794Z,25.93
2018-06-02T03:58:31.259Z,22.70
2018-06-02T04:00:58.694Z,26.97
2018-06-02T04:03:26.144Z,20.80
2018-06-02T04:05:53.598Z,23.40
2018-06-02T04:08:21.035Z,18.60
2018-06-02T04:10:49.266Z,18.00
2018-06-02T04:13:17.567Z,19.07
2018-06-02T04:15:45.086Z,17.33
2018-06-02T04:18:13.274Z,18.50
2018-06-02T04:20:40.757Z,22.83
2018-06-02T04:23:08.214Z,20.70
2018-06-02T04:25:35.710Z,19.90
2018-06-02T04:28:03.168Z,20.23
2018-06-02T04:30:30.630Z,19.57
2018-06-02T04:32:58.090Z,16.73
2018-06-02T04:35:25.550Z,17.87
2018-06-02T04:37:52.997Z,16.40
2018-06-02T04:40:20.455Z,18.80
2018-06-02T04:42:47.913Z,15.80
2018-06-02T04:45:15.358Z,15.87
2018-06-02T04:47:42.790Z,14.67
2018-06-02T04:50:10.249Z,14.60
2018-06-02T04:52:37.707Z,15.57
2018-06-02T04:55:05.177Z,16.83
2018-06-02T04:57:33.385Z,13.10
2018-06-02T05:00:00.845Z,12.87
2018-06-02T05:02:28.300Z,13.93
2018-06-02T05:04:55.750Z,12.60
2018-06-02T05:07:23.204Z,14.60
2018-06-02T05:09:50.657Z,12.97
2018-06-02T05:12:18.113Z,17.70
2018-06-02T05:14:45.570Z,13.40
2018-06-02T05:17:13.012Z,14.43
2018-06-02T05:19:41.234Z,13.53
2018-06-02T05:22:08.694Z,12.50
2018-06-02T05:24:36.170Z,13.90
2018-06-02T05:27:03.638Z,13.50
2018-06-02T05:29:31.103Z,12.53
2018-06-02T05:31:58.545Z,13.63
2018-06-02T05:34:26.002Z,14.77
2018-06-02T05:36:53.445Z,14.77
2018-06-02T05:39:20.896Z,13.03
2018-06-02T05:41:48.379Z,14.80
2018-06-02T05:44:15.829Z,16.77
2018-06-02T05:46:43.281Z,17.27
2018-06-02T05:49:10.733Z,15.57
2018-06-02T05:51:38.185Z,16.23
2018-06-02T05:54:05.636Z,13.70
2018-06-02T05:56:33.130Z,16.67
2018-06-02T05:59:00.584Z,13.77
2018-06-02T06:01:28.046Z,13.70
2018-06-02T06:03:55.499Z,12.77
2018-06-02T06:06:22.962Z,15.37
2018-06-02T06:08:50.416Z,15.67
2018-06-02T06:11:17.870Z,16.47
2018-06-02T06:13:45.327Z,14.57
2018-06-02T06:16:12.787Z,16.27
2018-06-02T06:18:40.258Z,13.50
2018-06-02T06:21:08.493Z,15.63
2018-06-02T06:23:36.071Z,15.23
2018-06-02T06:26:03.518Z,13.87
2018-06-02T06:28:30.969Z,16.97
2018-06-02T06:30:58.427Z,20.17
2018-06-02T06:33:25.914Z,17.30
2018-06-02T06:35:54.142Z,18.07
2018-06-02T06:38:21.600Z,16.23
2018-06-02T06:40:49.054Z,15.53
2018-06-02T06:43:16.511Z,15.20
2018-06-02T06:45:43.984Z,14.67
2018-06-02T06:48:11.442Z,19.30
2018-06-02T06:50:38.931Z,16.50
2018-06-02T06:53:06.355Z,15.53
2018-06-02T06:55:33.811Z,15.23
2018-06-02T06:58:01.255Z,13.60
2018-06-02T07:00:28.693Z,12.80
2018-06-02T07:02:56.164Z,15.60
2018-06-02T07:05:23.605Z,14.57
2018-06-02T07:07:51.057Z,12.60
2018-06-02T07:10:18.496Z,12.97
2018-06-02T07:12:46.719Z,11.60
2018-06-02T07:15:14.169Z,12.77
2018-06-02T07:17:41.632Z,13.13
2018-06-02T07:20:09.070Z,10.47
2018-06-02T07:22:36.513Z,12.70
2018-06-02T07:25:03.962Z,10.40
2018-06-02T07:27:32.185Z,11.50
2018-06-02T07:29:59.629Z,11.70
2018-06-02T07:32:27.086Z,9.67
2018-06-02T07:34:54.542Z,9.33
2018-06-02T07:37:22.025Z,10.63
2018-06-02T07:39:49.467Z,12.47
2018-06-02T07:42:16.925Z,10.83
2018-06-02T07:44:44.391Z,9.80
2018-06-02T07:47:11.837Z,10.07
2018-06-02T07:49:39.315Z,9.30
2018-06-02T07:52:06.774Z,9.90
2018-06-02T07:54:34.214Z,10.30
2018-06-02T07:57:01.666Z,8.17
2018-06-02T07:59:29.111Z,9.53
2018-06-02T08:01:56.575Z,7.60
2018-06-02T08:04:24.025Z,9.90
2018-06-02T08:06:51.481Z,9.63
2018-06-02T08:09:18.942Z,8.13
2018-06-02T08:11:46.399Z,9.70
2018-06-02T08:14:13.852Z,8.23
2018-06-02T08:16:41.294Z,8.40
2018-06-02T08:19:08.746Z,11.33
2018-06-02T08:21:36.203Z,10.27
2018-06-02T08:24:03.647Z,9.47
2018-06-02T08:26:31.895Z,9.97
2018-06-02T08:28:59.314Z,8.53
2018-06-02T08:31:26.770Z,7.27
2018-06-02T08:33:54.225Z,7.50
2018-06-02T08:36:21.699Z,22.60
2018-06-02T08:38:49.186Z,7.27
2018-06-02T08:41:16.619Z,13.97
2018-06-02T08:43:44.086Z,15.20
2018-06-02T08:46:11.517Z,7.67
2018-06-02T08:48:38.980Z,7.43
2018-06-02T08:51:06.434Z,9.53
2018-06-02T08:53:33.905Z,9.10
2018-06-02T08:56:01.358Z,9.63
2018-06-02T08:58:28.819Z,8.13
2018-06-02T09:00:56.261Z,9.20
2018-06-02T09:03:23.725Z,7.80
2018-06-02T09:05:51.187Z,7.17
2018-06-02T09:08:19.414Z,7.17
2018-06-02T09:10:46.869Z,8.30
2018-06-02T09:13:14.323Z,7.10
2018-06-02T09:15:41.783Z,7.17
2018-06-02T09:18:09.236Z,6.93
2018-06-02T09:20:36.695Z,6.63
2018-06-02T09:23:04.921Z,6.53
2018-06-02T09:25:32.386Z,5.90
2018-06-02T09:27:59.882Z,7.07
2018-06-02T09:30:28.111Z,6.37
2018-06-02T09:32:55.557Z,6.93
2018-06-02T09:35:22.990Z,6.20
2018-06-02T09:37:50.441Z,6.43
2018-06-02T09:40:18.659Z,7.90
2018-06-02T09:42:46.114Z,10.07
2018-06-02T09:45:13.570Z,6.97
2018-06-02T09:47:41.047Z,7.03
2018-06-02T09:50:08.484Z,5.37
2018-06-02T09:52:35.948Z,4.93
2018-06-02T09:55:03.393Z,5.43
2018-06-02T09:57:30.855Z,5.07
2018-06-02T09:59:58.311Z,6.23
2018-06-02T10:02:25.765Z,5.83
2018-06-02T10:04:53.229Z,5.07
2018-06-02T10:07:20.686Z,5.13
2018-06-02T10:09:48.139Z,4.43
2018-06-02T10:12:15.574Z,4.77
2018-06-02T10:14:43.032Z,4.50
2018-06-02T10:17:10.494Z,5.73
2018-06-02T10:19:37.946Z,4.27
2018-06-02T10:22:05.405Z,4.10
2018-06-02T10:24:32.859Z,4.00
2018-06-02T10:27:00.314Z,3.83
2018-06-02T10:29:27.772Z,3.80
2018-06-02T10:31:55.235Z,3.87
2018-06-02T10:34:23.429Z,4.60
2018-06-02T10:36:50.874Z,3.80
2018-06-02T10:39:18.334Z,4.03
2018-06-02T10:41:45.774Z,4.13
2018-06-02T10:44:13.229Z,5.90
2018-06-02T10:46:40.661Z,4.00
2018-06-02T10:49:08.110Z,4.10
2018-06-02T10:51:35.550Z,5.60
2018-06-02T10:54:02.997Z,3.37
2018-06-02T10:56:30.452Z,3.80
2018-06-02T10:58:58.657Z,4.67
2018-06-02T11:01:26.098Z,3.63
2018-06-02T11:03:53.544Z,3.83
2018-06-02T11:06:20.991Z,3.67
2018-06-02T11:08:48.439Z,4.13
2018-06-02T11:11:15.894Z,4.40
2018-06-02T11:13:43.338Z,4.03
2018-06-02T11:16:10.786Z,4.23
2018-06-02T11:18:38.245Z,4.50
2018-06-02T11:21:05.681Z,4.43
2018-06-02T11:23:33.894Z,4.37
2018-06-02T11:26:01.347Z,5.40
2018-06-02T11:28:28.797Z,5.00
2018-06-02T11:30:56.255Z,4.03
2018-06-02T11:33:23.702Z,4.10
2018-06-02T11:35:51.171Z,4.33
2018-06-02T11:38:19.365Z,4.17
2018-06-02T11:40:46.811Z,4.47
2018-06-02T11:43:14.253Z,4.63
2018-06-02T11:45:41.704Z,4.70
2018-06-02T11:48:09.143Z,4.47
2018-06-02T11:50:37.357Z,4.27
2018-06-02T11:53:04.806Z,4.50
2018-06-02T11:55:32.261Z,4.60
2018-06-02T11:57:59.689Z,4.80
2018-06-02T12:00:27.142Z,4.60
2018-06-02T12:02:55.349Z,6.27
2018-06-02T12:05:22.800Z,4.90
2018-06-02T12:07:50.249Z,4.83
2018-06-02T12:10:18.476Z,4.80
2018-06-02T12:12:45.902Z,4.53
2018-06-02T12:15:13.352Z,5.43
2018-06-02T12:17:40.795Z,6.27
2018-06-02T12:20:09.002Z,5.37
2018-06-02T12:22:36.462Z,6.67
2018-06-02T12:25:03.902Z,5.60
2018-06-02T12:27:31.349Z,6.63
2018-06-02T12:29:58.809Z,8.03
2018-06-02T12:32:26.253Z,7.07
2018-06-02T12:34:54.462Z,6.97
2018-06-02T12:37:21.905Z,7.47
2018-06-02T12:39:49.372Z,7.07
2018-06-02T12:42:16.819Z,9.47
2018-06-02T12:44:44.263Z,8.63
2018-06-02T12:47:11.711Z,8.93
2018-06-02T12:49:39.934Z,11.20
2018-06-02T12:52:07.378Z,10.80
2018-06-02T12:54:34.854Z,13.00
2018-06-02T12:57:02.313Z,10.57
2018-06-02T12:59:29.746Z,8.93
2018-06-02T13:01:57.189Z,8.13
2018-06-02T13:04:24.635Z,9.10
2018-06-02T13:06:52.094Z,8.40
2018-06-02T13:09:19.539Z,6.63
2018-06-02T13:11:46.996Z,5.50
2018-06-02T13:14:15.205Z,6.20
2018-06-02T13:16:42.683Z,4.83
2018-06-02T13:19:10.119Z,4.70
2018-06-02T13:21:37.579Z,4.67
2018-06-02T13:24:05.034Z,2.70
2018-06-02T13:26:32.489Z,2.03
2018-06-02T13:28:59.963Z,1.93
2018-06-02T13:31:27.404Z,2.03
2018-06-02T13:33:54.863Z,2.13
2018-06-02T13:36:22.302Z,2.27
2018-06-02T13:38:49.762Z,2.70
2018-06-02T13:41:17.300Z,3.83
2018-06-02T13:43:45.503Z,3.20
2018-06-02T13:46:12.966Z,3.83
2018-06-02T13:48:40.420Z,3.93
2018-06-02T13:51:07.875Z,5.17
2018-06-02T13:53:35.319Z,4.70
2018-06-02T13:56:02.765Z,4.23
2018-06-02T13:58:30.970Z,5.00
2018-06-02T14:00:58.444Z,5.87
2018-06-02T14:03:25.879Z,5.93
2018-06-02T14:05:53.343Z,5.83
2018-06-02T14:08:20.797Z,8.47
2018-06-02T14:10:48.226Z,8.30
2018-06-02T14:13:16.455Z,7.60
2018-06-02T14:15:43.882Z,7.87
2018-06-02T14:18:11.338Z,7.93
2018-06-02T14:20:38.793Z,6.97
2018-06-02T14:23:06.251Z,6.47
2018-06-02T14:25:33.717Z,6.33
2018-06-02T14:28:01.168Z,6.33
2018-06-02T14:30:28.605Z,6.57
2018-06-02T14:32:56.065Z,6.87
2018-06-02T14:35:24.266Z,7.90
2018-06-02T14:37:51.743Z,7.17
2018-06-02T14:40:19.187Z,8.53
2018-06-02T14:42:46.630Z,7.13
2018-06-02T14:45:14.087Z,8.27
2018-06-02T14:47:41.521Z,8.30
2018-06-02T14:50:09.729Z,9.13
2018-06-02T14:52:37.183Z,9.07
2018-06-02T14:55:04.690Z,9.97
2018-06-02T14:57:32.077Z,9.90
2018-06-02T14:59:59.521Z,9.47
2018-06-02T15:02:27.730Z,9.30
2018-06-02T15:04:55.170Z,9.20
2018-06-02T15:07:22.626Z,9.70
2018-06-02T15:09:50.081Z,9.00
2018-06-02T15:12:17.543Z,9.83
2018-06-02T15:14:44.984Z,8.63
2018-06-02T15:17:13.190Z,8.53
2018-06-02T15:19:40.634Z,9.27
2018-06-02T15:22:08.090Z,8.57
2018-06-02T15:24:35.547Z,9.03
2018-06-02T15:27:03.018Z,8.60
2018-06-02T15:29:30.442Z,8.57
2018-06-02T15:31:58.649Z,8.67
2018-06-02T15:34:26.107Z,8.83
2018-06-02T15:36:53.541Z,8.70
2018-06-02T15:39:20.986Z,10.07
2018-06-02T15:41:49.203Z,8.97
2018-06-02T15:44:16.658Z,9.30
2018-06-02T15:46:44.082Z,8.87
2018-06-02T15:49:11.529Z,7.47
2018-06-02T15:51:39.739Z,6.67
2018-06-02T15:54:07.190Z,7.13
2018-06-02T15:56:34.633Z,7.97
2018-06-02T15:59:02.092Z,7.70
2018-06-02T16:01:29.540Z,7.57
2018-06-02T16:03:57.754Z,7.17
2018-06-02T16:06:25.193Z,7.37
2018-06-02T16:08:52.651Z,6.83
2018-06-02T16:11:20.094Z,7.03
2018-06-02T16:13:47.546Z,7.40
2018-06-02T16:16:14.977Z,7.60
2018-06-02T16:18:42.439Z,7.57
2018-06-02T16:21:09.881Z,8.87
2018-06-02T16:23:37.347Z,7.43
2018-06-02T16:26:04.777Z,6.57
2018-06-02T16:28:32.222Z,7.03
2018-06-02T16:30:59.664Z,7.10
2018-06-02T16:33:27.097Z,7.10
2018-06-02T16:35:55.303Z,8.10
2018-06-02T16:38:22.760Z,8.93
2018-06-02T16:40:50.189Z,7.17
2018-06-02T16:43:17.646Z,6.47
2018-06-02T16:45:46.293Z,6.50
2018-06-02T16:48:13.751Z,6.37
2018-06-02T16:50:41.211Z,4.10
2018-06-02T16:53:08.664Z,4.03
2018-06-02T16:55:36.146Z,3.93
2018-06-02T16:58:03.563Z,3.80
2018-06-02T17:00:31.015Z,4.70
2018-06-02T17:02:58.445Z,4.37
2018-06-02T17:05:25.889Z,3.87
2018-06-02T17:07:53.338Z,4.47
2018-06-02T17:10:21.554Z,4.47
2018-06-02T17:12:48.996Z,4.20
2018-06-02T17:15:16.448Z,3.90
2018-06-02T17:17:43.897Z,3.77
2018-06-02T17:20:11.346Z,4.10
2018-06-02T17:22:39.556Z,4.07
2018-06-02T17:25:06.993Z,4.17
2018-06-02T17:27:34.434Z,5.07
2018-06-02T17:30:02.646Z,4.00
2018-06-02T17:32:30.086Z,3.67
2018-06-02T17:34:57.537Z,4.00
2018-06-02T17:37:24.974Z,5.73
2018-06-02T17:39:53.182Z,5.17
2018-06-02T17:42:20.623Z,3.67
2018-06-02T17:44:48.064Z,4.00
2018-06-02T17:47:15.513Z,4.13
2018-06-02T17:49:43.733Z,41.90
2018-06-02T17:52:11.173Z,14.27
2018-06-02T17:54:38.630Z,61.90
2018-06-02T17:57:06.077Z,14.13
2018-06-02T17:59:34.290Z,4.90
2018-06-02T18:02:01.739Z,9.43
2018-06-02T18:04:29.195Z,6.13
2018-06-02T18:06:56.626Z,5.97
2018-06-02T18:09:24.060Z,4.03
2018-06-02T18:11:52.273Z,4.23
2018-06-02T18:14:19.723Z,17.67
2018-06-02T18:16:47.167Z,6.03
2018-06-02T18:19:15.370Z,8.33
2018-06-02T18:21:42.801Z,4.13
2018-06-02T18:24:10.253Z,7.73
2018-06-02T18:26:38.478Z,16.63
2018-06-02T18:29:05.936Z,8.23
2018-06-02T18:31:33.409Z,14.97
2018-06-02T18:34:00.863Z,6.93
2018-06-02T18:36:28.317Z,11.10
2018-06-02T18:38:55.765Z,10.63
2018-06-02T18:41:23.227Z,29.83
2018-06-02T18:43:50.678Z,15.70
2018-06-02T18:46:18.136Z,7.40
2018-06-02T18:48:45.597Z,5.63
2018-06-02T18:51:13.050Z,11.73
2018-06-02T18:53:40.539Z,21.90
2018-06-02T18:56:07.968Z,71.27
2018-06-02T18:58:36.177Z,38.87
2018-06-02T19:01:04.433Z,19.83
2018-06-02T19:03:31.846Z,17.50
2018-06-02T19:05:59.294Z,29.33
2018-06-02T19:08:26.735Z,12.67
2018-06-02T19:10:54.962Z,14.10
2018-06-02T19:13:22.421Z,19.20
2018-06-02T19:15:49.921Z,27.67
2018-06-02T19:18:18.113Z,36.03
2018-06-02T19:20:45.585Z,11.23
2018-06-02T19:23:13.017Z,5.70
2018-06-02T19:25:40.469Z,4.77
2018-06-02T19:28:08.665Z,8.67
2018-06-02T19:30:36.110Z,4.90
2018-06-02T19:33:03.554Z,5.63
2018-06-02T19:35:31.781Z,12.77
2018-06-02T19:37:59.221Z,12.10
2018-06-02T19:40:26.660Z,10.83
2018-06-02T19:42:54.099Z,5.87
2018-06-02T19:45:22.325Z,4.50
2018-06-02T19:47:49.762Z,6.87
2018-06-02T19:50:17.205Z,6.27
2018-06-02T19:52:45.466Z,5.63
2018-06-02T19:55:13.665Z,5.37
2018-06-02T19:57:41.106Z,6.07
2018-06-02T20:00:09.324Z,5.23
2018-06-02T20:02:36.775Z,6.63
2018-06-02T20:05:04.982Z,7.77
2018-06-02T20:07:32.430Z,7.77
2018-06-02T20:09:59.893Z,6.83
2018-06-02T20:12:27.351Z,8.40
2018-06-02T20:14:54.834Z,10.03
2018-06-02T20:17:22.260Z,10.77
2018-06-02T20:19:49.698Z,9.70
2018-06-02T20:22:17.151Z,8.70
2018-06-02T20:24:44.590Z,9.67
2018-06-02T20:27:12.047Z,7.47
2018-06-02T20:29:39.529Z,9.63
2018-06-02T20:32:06.981Z,7.13
2018-06-02T20:34:34.419Z,8.13
2018-06-02T20:37:01.898Z,7.83
2018-06-02T20:39:29.313Z,8.60
2018-06-02T20:41:56.761Z,7.50
2018-06-02T20:44:24.977Z,8.13
2018-06-02T20:46:52.433Z,7.63
2018-06-02T20:49:19.879Z,19.27
2018-06-02T20:51:47.335Z,11.47
2018-06-02T20:54:14.766Z,9.73
2018-06-02T20:56:43.006Z,7.83
2018-06-02T20:59:10.441Z,9.50
2018-06-02T21:01:37.911Z,9.27
2018-06-02T21:04:05.377Z,11.57
2018-06-02T21:06:32.826Z,27.20
2018-06-02T21:09:00.302Z,14.90
2018-06-02T21:11:27.733Z,12.70
2018-06-02T21:13:55.177Z,8.40
2018-06-02T21:16:22.637Z,12.47
2018-06-02T21:18:50.091Z,12.93
2018-06-02T21:21:17.531Z,10.67
2018-06-02T21:23:44.989Z,19.90
2018-06-02T21:26:12.442Z,13.90
2018-06-02T21:28:39.894Z,11.67
2018-06-02T21:31:07.330Z,16.07
2018-06-02T21:33:35.554Z,16.47
2018-06-02T21:36:02.993Z,13.10
2018-06-02T21:38:30.452Z,9.00
2018-06-02T21:40:57.885Z,10.97
2018-06-02T21:43:26.106Z,9.93
2018-06-02T21:45:53.554Z,13.53
2018-06-02T21:48:21.013Z,10.70
2018-06-02T21:50:48.450Z,8.40
2018-06-02T21:53:15.896Z,14.50
2018-06-02T21:55:44.110Z,12.50
2018-06-02T21:58:11.578Z,17.10
2018-06-02T22:00:39.013Z,11.73
2018-06-02T22:03:06.473Z,14.90
2018-06-02T22:05:33.925Z,9.43
2018-06-02T22:08:01.386Z,17.63
2018-06-02T22:10:28.842Z,21.47
2018-06-02T22:12:56.301Z,13.33
2018-06-02T22:15:23.760Z,13.97
2018-06-02T22:17:51.213Z,9.77
2018-06-02T22:20:18.657Z,9.63
2018-06-02T22:22:46.124Z,10.37
2018-06-02T22:25:13.549Z,15.37
2018-06-02T22:27:41.793Z,14.10
2018-06-02T22:30:09.244Z,9.63
2018-06-02T22:32:36.689Z,10.30
2018-06-02T22:35:04.131Z,8.93
2018-06-02T22:37:31.586Z,13.20
2018-06-02T22:39:59.026Z,10.07
2018-06-02T22:42:26.465Z,11.17
2018-06-02T22:44:54.681Z,10.47
2018-06-02T22:47:22.136Z,11.67
2018-06-02T22:49:49.585Z,8.53
2018-06-02T22:52:17.041Z,9.67
2018-06-02T22:54:44.473Z,8.37
2018-06-02T22:57:12.711Z,8.53
2018-06-02T22:59:40.162Z,12.37
2018-06-02T23:02:07.622Z,12.93
2018-06-02T23:04:35.109Z,14.20
2018-06-02T23:07:03.386Z,12.10
2018-06-02T23:09:31.659Z,16.37
2018-06-02T23:11:59.899Z,15.17
2018-06-02T23:14:27.377Z,12.00
2018-06-02T23:16:54.844Z,16.37
2018-06-02T23:19:23.099Z,15.37
2018-06-02T23:21:50.567Z,14.67
2018-06-02T23:24:18.040Z,19.07
2018-06-02T23:26:46.279Z,13.17
2018-06-02T23:29:13.755Z,10.20
2018-06-02T23:31:41.219Z,8.80
2018-06-02T23:34:08.671Z,8.50
2018-06-02T23:36:36.114Z,8.80
2018-06-02T23:39:03.591Z,9.10
2018-06-02T23:41:31.050Z,9.90
2018-06-02T23:43:58.518Z,11.57
2018-06-02T23:46:26.730Z,8.23
2018-06-02T23:48:54.189Z,15.33
2018-06-02T23:51:21.635Z,9.73
2018-06-02T23:53:49.097Z,16.60
2018-06-02T23:56:16.534Z,8.60
2018-06-02T23:58:44.760Z,8.93
